| time (UTC) | temp F | wind direction | speed MPH | gust MPH | rain 1hr in | rain 24hr in | rain mn in | humidity % | barometer mb |
| 20260902104614 | 75 | 155 | 6.0 | 11.0 | 0.00 | 0.00 | 0.00 | 15 | 1007.1 |
| 20260902103111 | 75 | 165 | 7.0 | 13.0 | 0.00 | 0.00 | 0.00 | 16 | 1007.3 |
| 20260902101606 | 75 | 157 | 6.0 | 11.0 | 0.00 | 0.00 | 0.00 | 17 | 1007.3 |
| 20260902100058 | 75 | 167 | 4.0 | 8.0 | 0.00 | 0.00 | 0.00 | 17 | 1007.4 |
| 20260902094557 | 76 | 202 | 5.0 | 10.0 | 0.00 | 0.00 | 0.00 | 17 | 1007.5 |
| 20260902093057 | 76 | 173 | 9.0 | 16.0 | 0.00 | 0.00 | 0.00 | 16 | 1007.3 |
| 20260902091557 | 77 | 144 | 7.0 | 13.0 | 0.00 | 0.00 | 0.00 | 16 | 1007.3 |
| 20260902090058 | 77 | 138 | 6.0 | 11.0 | 0.00 | 0.00 | 0.00 | 16 | 1007.3 |
| 20260902084558 | 77 | 163 | 6.0 | 13.0 | 0.00 | 0.00 | 0.00 | 16 | 1007.2 |
| 20260902083057 | 78 | 161 | 6.0 | 14.0 | 0.00 | 0.00 | 0.00 | 15 | 1007.2 |
| 20260902081556 | 78 | 134 | 7.0 | 11.0 | 0.00 | 0.00 | 0.00 | 14 | 1007.3 |
| 20260902080057 | 78 | 184 | 9.0 | 13.0 | 0.00 | 0.00 | 0.00 | 14 | 1007.4 |
| 20260902080001 | 78 | 196 | 9.0 | 14.0 | 0.00 | 0.00 | 0.00 | 14 | 1007.4 |
| 20260902074559 | 79 | 138 | 5.0 | 11.0 | 0.00 | 0.00 | 0.00 | 13 | 1007.3 |
| 20260902073100 | 79 | 156 | 5.0 | 15.0 | 0.00 | 0.00 | 0.00 | 13 | 1007.1 |
| 20260902071600 | 79 | 142 | 9.0 | 16.0 | 0.00 | 0.00 | 0.00 | 12 | 1007.0 |
| 20260902070100 | 80 | 141 | 8.0 | 17.0 | 0.00 | 0.00 | 0.00 | 12 | 1006.9 |
| 20260902070008 | 80 | 131 | 6.0 | 16.0 | 0.00 | 0.00 | 0.00 | 12 | 1006.9 |
| 20260902064606 | 80 | 169 | 5.0 | 12.0 | 0.00 | 0.00 | 0.00 | 12 | 1006.9 |
| 20260902063113 | 80 | 155 | 5.0 | 10.0 | 0.00 | 0.00 | 0.00 | 12 | 1006.9 |
| 20260902061622 | 80 | 157 | 3.0 | 9.0 | 0.00 | 0.00 | 0.00 | 12 | 1006.8 |
| 20260902060109 | 81 | 133 | 3.0 | 9.0 | 0.00 | 0.00 | 0.00 | 13 | 1006.7 |
| 20260902060001 | 81 | 166 | 4.0 | 9.0 | 0.00 | 0.00 | 0.00 | 13 | 1006.7 |
| 20260902054600 | 81 | 138 | 4.0 | 8.0 | 0.00 | 0.00 | 0.00 | 13 | 1006.6 |
| 20260902053105 | 82 | 163 | 3.0 | 8.0 | 0.00 | 0.00 | 0.00 | 13 | 1006.6 |
| 20260902051613 | 83 | 138 | 3.0 | 8.0 | 0.00 | 0.00 | 0.00 | 14 | 1006.6 |
| 20260902050100 | 83 | 184 | 5.0 | 12.0 | 0.00 | 0.00 | 0.00 | 14 | 1006.4 |
| 20260902044624 | 83 | 178 | 4.0 | 8.0 | 0.00 | 0.00 | 0.00 | 14 | 1006.4 |
| 20260902043059 | 83 | 126 | 2.0 | 6.0 | 0.00 | 0.00 | 0.00 | 14 | 1006.3 |
| 20260902041601 | 84 | 169 | 1.0 | 5.0 | 0.00 | 0.00 | 0.00 | 15 | 1006.0 |
| 20260902040100 | 84 | 168 | 1.0 | 4.0 | 0.00 | 0.00 | 0.00 | 16 | 1005.7 |
| 20260902040001 | 84 | 152 | 1.0 | 4.0 | 0.00 | 0.00 | 0.00 | 16 | 1005.7 |
| 20260902034602 | 85 | 131 | 2.0 | 6.0 | 0.00 | 0.00 | 0.00 | 16 | 1005.4 |
| 20260902033059 | 85 | 103 | 3.0 | 5.0 | 0.00 | 0.00 | 0.00 | 15 | 1005.2 |
| 20260902031610 | 86 | 142 | 2.0 | 3.0 | 0.00 | 0.00 | 0.00 | 15 | 1005.0 |
| 20260902030002 | 87 | 183 | 1.0 | 2.0 | 0.00 | 0.00 | 0.00 | 15 | 1004.8 |
| 20260902024604 | 88 | 234 | 2.0 | 5.0 | 0.00 | 0.00 | 0.00 | 14 | 1004.6 |
| 20260902023103 | 89 | 223 | 2.0 | 8.0 | 0.00 | 0.00 | 0.00 | 14 | 1004.5 |
| 20260902021601 | 89 | 227 | 1.0 | 6.0 | 0.00 | 0.00 | 0.00 | 13 | 1004.4 |
| 20260902020001 | 90 | 224 | 3.0 | 6.0 | 0.00 | 0.00 | 0.00 | 13 | 1004.5 |
| 20260902014600 | 91 | 254 | 3.0 | 8.0 | 0.00 | 0.00 | 0.00 | 13 | 1004.5 |
| 20260902013110 | 92 | 215 | 3.0 | 10.0 | 0.00 | 0.00 | 0.00 | 13 | 1004.5 |
| 20260902011601 | 93 | 246 | 5.0 | 15.0 | 0.00 | 0.00 | 0.00 | 12 | 1004.6 |
| 20260902011501 | 93 | 221 | 6.0 | 15.0 | 0.00 | 0.00 | 0.00 | 12 | 1004.6 |
| 20260902010105 | 94 | 218 | 5.0 | 18.0 | 0.00 | 0.00 | 0.00 | 12 | 1004.8 |
| 20260902004558 | 94 | 189 | 4.0 | 13.0 | 0.00 | 0.00 | 0.00 | 11 | 1005.1 |
| 20260902003058 | 95 | 190 | 3.0 | 13.0 | 0.00 | 0.00 | 0.00 | 11 | 1005.1 |
| 20260902001604 | 95 | 227 | 5.0 | 17.0 | 0.00 | 0.00 | 0.00 | 10 | 1005.1 |
| 20260902000059 | 95 | 205 | 5.0 | 17.0 | 0.00 | 0.00 | 0.00 | 10 | 1005.2 |
| 20260902000003 | 95 | 251 | 6.0 | 17.0 | 0.00 | 0.00 | 0.00 | 10 | 1005.2 |
| 20260901234608 | 95 | 200 | 8.0 | 21.0 | 0.00 | 0.00 | 0.00 | 10 | 1005.4 |
| 20260901233103 | 95 | 211 | 11.0 | 24.0 | 0.00 | 0.00 | 0.00 | 9 | 1005.4 |
| 20260901231612 | 96 | 169 | 10.0 | 20.0 | 0.00 | 0.00 | 0.00 | 10 | 1005.5 |
| 20260901230109 | 96 | 126 | 7.0 | 20.0 | 0.00 | 0.00 | 0.00 | 10 | 1005.5 |
| 20260901224559 | 97 | 259 | 7.0 | 19.0 | 0.00 | 0.00 | 0.00 | 9 | 1005.6 |
| 20260901223059 | 96 | 169 | 7.0 | 19.0 | 0.00 | 0.00 | 0.00 | 10 | 1005.7 |
| 20260901221611 | 97 | 196 | 6.0 | 19.0 | 0.00 | 0.00 | 0.00 | 10 | 1005.9 |
| 20260901220058 | 97 | 227 | 8.0 | 19.0 | 0.00 | 0.00 | 0.00 | 10 | 1006.0 |
| 20260901214558 | 97 | 256 | 9.0 | 20.0 | 0.00 | 0.00 | 0.00 | 10 | 1006.1 |
| 20260901213059 | 97 | 157 | 7.0 | 21.0 | 0.00 | 0.00 | 0.00 | 10 | 1006.3 |
| 20260901211558 | 96 | 211 | 8.0 | 24.0 | 0.00 | 0.00 | 0.00 | 11 | 1006.5 |
| 20260901210059 | 97 | 200 | 7.0 | 18.0 | 0.00 | 0.00 | 0.00 | 10 | 1006.5 |
| 20260901210004 | 97 | 204 | 6.0 | 18.0 | 0.00 | 0.00 | 0.00 | 11 | 1006.6 |
| 20260901204601 | 97 | 173 | 8.0 | 18.0 | 0.00 | 0.00 | 0.00 | 12 | 1006.7 |
| 20260901203059 | 96 | 197 | 4.0 | 14.0 | 0.00 | 0.00 | 0.00 | 14 | 1006.8 |
| 20260901201558 | 96 | 246 | 7.0 | 13.0 | 0.00 | 0.00 | 0.00 | 13 | 1007.2 |
| 20260901200058 | 95 | 164 | 6.0 | 21.0 | 0.00 | 0.00 | 0.00 | 15 | 1007.4 |
| 20260901194603 | 95 | 169 | 8.0 | 18.0 | 0.00 | 0.00 | 0.00 | 15 | 1007.7 |
| 20260901193100 | 95 | 166 | 9.0 | 18.0 | 0.00 | 0.00 | 0.00 | 14 | 1007.8 |
| 20260901191559 | 94 | 213 | 5.0 | 13.0 | 0.00 | 0.00 | 0.00 | 18 | 1007.8 |
| 20260901190058 | 94 | 204 | 8.0 | 18.0 | 0.00 | 0.00 | 0.00 | 18 | 1007.9 |
| 20260901184606 | 93 | 182 | 5.0 | 16.0 | 0.00 | 0.00 | 0.00 | 19 | 1008.1 |
| 20260901183119 | 92 | 143 | 6.0 | 19.0 | 0.00 | 0.00 | 0.00 | 22 | 1008.3 |
| 20260901181558 | 92 | 188 | 5.0 | 15.0 | 0.00 | 0.00 | 0.00 | 24 | 1008.4 |
| 20260901180058 | 90 | 186 | 6.0 | 11.0 | 0.00 | 0.00 | 0.00 | 25 | 1008.5 |
| 20260901174559 | 90 | 157 | 7.0 | 14.0 | 0.00 | 0.00 | 0.00 | 26 | 1008.7 |
| 20260901173139 | 89 | 177 | 4.0 | 11.0 | 0.00 | 0.00 | 0.00 | 27 | 1008.7 |
| 20260901171601 | 89 | 173 | 5.0 | 13.0 | 0.00 | 0.00 | 0.00 | 26 | 1008.7 |
| 20260901164558 | 87 | 213 | 3.0 | 10.0 | 0.00 | 0.00 | 0.00 | 24 | 1008.7 |
| 20260901163115 | 86 | 217 | 3.0 | 8.0 | 0.00 | 0.00 | 0.00 | 19 | 1008.7 |
| 20260901161606 | 85 | 189 | 5.0 | 8.0 | 0.00 | 0.00 | 0.00 | 20 | 1008.8 |
| 20260901160058 | 84 | 175 | 3.0 | 8.0 | 0.00 | 0.00 | 0.00 | 21 | 1008.8 |
| 20260901154603 | 83 | 188 | 2.0 | 8.0 | 0.00 | 0.00 | 0.00 | 22 | 1008.7 |
| 20260901153059 | 81 | 224 | 0.0 | 3.0 | 0.00 | 0.00 | 0.00 | 26 | 1008.6 |
| 20260901151601 | 80 | 173 | 0.0 | 2.0 | 0.00 | 0.00 | 0.00 | 27 | 1008.6 |
| 20260901150059 | 79 | 152 | 3.0 | 4.0 | 0.00 | 0.00 | 0.00 | 26 | 1008.5 |
| 20260901144559 | 77 | 222 | 2.0 | 4.0 | 0.00 | 0.00 | 0.00 | 24 | 1008.4 |
| 20260901143107 | 76 | 150 | 2.0 | 5.0 | 0.00 | 0.00 | 0.00 | 28 | 1008.4 |
| 20260901141609 | 76 | 160 | 2.0 | 6.0 | 0.00 | 0.00 | 0.00 | 29 | 1008.3 |
| 20260901140058 | 75 | 130 | 4.0 | 6.0 | 0.00 | 0.00 | 0.00 | 29 | 1008.2 |
| 20260901134557 | 74 | 159 | 3.0 | 5.0 | 0.00 | 0.00 | 0.00 | 26 | 1008.1 |
| 20260901133104 | 74 | 144 | 3.0 | 5.0 | 0.00 | 0.00 | 0.00 | 23 | 1008.1 |
| 20260901131558 | 73 | 156 | 2.0 | 4.0 | 0.00 | 0.00 | 0.00 | 23 | 1008.0 |
| 20260901130052 | 73 | 150 | 2.0 | 4.0 | 0.00 | 0.00 | 0.00 | 25 | 1007.8 |
| 20260901124550 | 73 | 128 | 2.0 | 3.0 | 0.00 | 0.00 | 0.00 | 24 | 1007.7 |
| 20260901123051 | 74 | 147 | 3.0 | 5.0 | 0.00 | 0.00 | 0.00 | 24 | 1007.8 |
| 20260901121557 | 75 | 160 | 0.0 | 2.0 | 0.00 | 0.00 | 0.00 | 24 | 1007.6 |
| 20260901120104 | 75 | 161 | 2.0 | 3.0 | 0.00 | 0.00 | 0.00 | 22 | 1007.6 |
| 20260901114552 | 76 | 142 | 2.0 | 5.0 | 0.00 | 0.00 | 0.00 | 23 | 1007.6 |
| 20260901113051 | 76 | 158 | 2.0 | 5.0 | 0.00 | 0.00 | 0.00 | 22 | 1007.4 |
| 20260901111557 | 76 | 155 | 3.0 | 7.0 | 0.00 | 0.00 | 0.00 | 23 | 1007.4 |
| 20260901110053 | 76 | 128 | 3.0 | 5.0 | 0.00 | 0.00 | 0.00 | 24 | 1007.4 |